sensor_id;sensor_type;location;lat;lon;timestamp;P1;durP1;ratioP1;P2;durP2;ratioP2
74935;SDS011;63501;55.570;37.488;2023-06-26T00:00:49;9.80;;;5.63;;
74935;SDS011;63501;55.570;37.488;2023-06-26T00:03:18;8.60;;;5.97;;
74935;SDS011;63501;55.570;37.488;2023-06-26T00:05:45;11.48;;;5.97;;
74935;SDS011;63501;55.570;37.488;2023-06-26T00:08:12;9.68;;;5.43;;
74935;SDS011;63501;55.570;37.488;2023-06-26T00:10:39;9.10;;;5.65;;
74935;SDS011;63501;55.570;37.488;2023-06-26T00:13:06;9.45;;;5.97;;
74935;SDS011;63501;55.570;37.488;2023-06-26T00:15:33;7.57;;;4.95;;
74935;SDS011;63501;55.570;37.488;2023-06-26T00:18:01;8.88;;;5.65;;
74935;SDS011;63501;55.570;37.488;2023-06-26T00:20:30;10.60;;;5.10;;
74935;SDS011;63501;55.570;37.488;2023-06-26T00:22:59;11.45;;;5.95;;
74935;SDS011;63501;55.570;37.488;2023-06-26T00:25:26;7.68;;;5.43;;
74935;SDS011;63501;55.570;37.488;2023-06-26T00:27:53;12.18;;;6.75;;
74935;SDS011;63501;55.570;37.488;2023-06-26T00:30:20;11.88;;;5.93;;
74935;SDS011;63501;55.570;37.488;2023-06-26T00:32:47;10.35;;;6.68;;
74935;SDS011;63501;55.570;37.488;2023-06-26T00:35:14;11.85;;;6.20;;
74935;SDS011;63501;55.570;37.488;2023-06-26T00:37:43;9.13;;;6.28;;
74935;SDS011;63501;55.570;37.488;2023-06-26T00:40:10;10.43;;;6.40;;
74935;SDS011;63501;55.570;37.488;2023-06-26T00:42:38;9.48;;;5.38;;
74935;SDS011;63501;55.570;37.488;2023-06-26T00:45:06;9.35;;;5.63;;
74935;SDS011;63501;55.570;37.488;2023-06-26T00:47:33;9.90;;;6.07;;
74935;SDS011;63501;55.570;37.488;2023-06-26T00:50:00;10.88;;;5.72;;
74935;SDS011;63501;55.570;37.488;2023-06-26T00:52:29;10.50;;;5.65;;
74935;SDS011;63501;55.570;37.488;2023-06-26T00:57:25;8.25;;;5.10;;
74935;SDS011;63501;55.570;37.488;2023-06-26T00:59:53;9.75;;;5.65;;
74935;SDS011;63501;55.570;37.488;2023-06-26T01:02:21;9.57;;;5.22;;
74935;SDS011;63501;55.570;37.488;2023-06-26T01:04:48;8.57;;;5.65;;
74935;SDS011;63501;55.570;37.488;2023-06-26T01:07:16;10.90;;;6.00;;
74935;SDS011;63501;55.570;37.488;2023-06-26T01:09:45;11.45;;;5.45;;
74935;SDS011;63501;55.570;37.488;2023-06-26T01:12:15;8.80;;;5.85;;
74935;SDS011;63501;55.570;37.488;2023-06-26T01:14:42;11.70;;;5.72;;
74935;SDS011;63501;55.570;37.488;2023-06-26T01:17:09;9.63;;;5.65;;
74935;SDS011;63501;55.570;37.488;2023-06-26T01:19:40;11.00;;;5.60;;
74935;SDS011;63501;55.570;37.488;2023-06-26T01:22:10;12.20;;;6.05;;
74935;SDS011;63501;55.570;37.488;2023-06-26T01:25:02;9.70;;;5.05;;
74935;SDS011;63501;55.570;37.488;2023-06-26T01:27:45;10.07;;;5.50;;
74935;SDS011;63501;55.570;37.488;2023-06-26T01:30:13;11.02;;;5.93;;
74935;SDS011;63501;55.570;37.488;2023-06-26T01:32:43;10.82;;;5.65;;
74935;SDS011;63501;55.570;37.488;2023-06-26T01:35:11;11.80;;;5.80;;
74935;SDS011;63501;55.570;37.488;2023-06-26T01:37:40;11.93;;;5.60;;
74935;SDS011;63501;55.570;37.488;2023-06-26T01:40:07;10.20;;;5.90;;
74935;SDS011;63501;55.570;37.488;2023-06-26T01:42:35;9.48;;;6.32;;
74935;SDS011;63501;55.570;37.488;2023-06-26T01:45:05;10.45;;;5.70;;
74935;SDS011;63501;55.570;37.488;2023-06-26T01:47:35;11.35;;;6.18;;
74935;SDS011;63501;55.570;37.488;2023-06-26T01:50:09;8.90;;;5.50;;
74935;SDS011;63501;55.570;37.488;2023-06-26T01:52:42;10.18;;;5.53;;
74935;SDS011;63501;55.570;37.488;2023-06-26T01:55:15;10.13;;;5.55;;
74935;SDS011;63501;55.570;37.488;2023-06-26T01:57:46;12.07;;;6.57;;
74935;SDS011;63501;55.570;37.488;2023-06-26T02:00:16;10.23;;;6.22;;
74935;SDS011;63501;55.570;37.488;2023-06-26T02:02:46;12.88;;;6.10;;
74935;SDS011;63501;55.570;37.488;2023-06-26T02:05:13;11.77;;;5.55;;
74935;SDS011;63501;55.570;37.488;2023-06-26T02:07:41;10.23;;;6.10;;
74935;SDS011;63501;55.570;37.488;2023-06-26T02:10:09;9.63;;;5.50;;
74935;SDS011;63501;55.570;37.488;2023-06-26T02:15:04;9.40;;;6.10;;
74935;SDS011;63501;55.570;37.488;2023-06-26T02:17:34;10.70;;;5.50;;
74935;SDS011;63501;55.570;37.488;2023-06-26T02:20:02;12.63;;;6.80;;
74935;SDS011;63501;55.570;37.488;2023-06-26T02:22:32;11.57;;;6.93;;
74935;SDS011;63501;55.570;37.488;2023-06-26T02:24:59;13.88;;;6.20;;
74935;SDS011;63501;55.570;37.488;2023-06-26T02:27:28;10.70;;;6.53;;
74935;SDS011;63501;55.570;37.488;2023-06-26T02:29:55;12.90;;;6.03;;
74935;SDS011;63501;55.570;37.488;2023-06-26T02:32:22;10.25;;;5.88;;
74935;SDS011;63501;55.570;37.488;2023-06-26T02:34:51;10.07;;;5.80;;
74935;SDS011;63501;55.570;37.488;2023-06-26T02:37:19;14.13;;;6.63;;
74935;SDS011;63501;55.570;37.488;2023-06-26T02:39:46;9.32;;;5.57;;
74935;SDS011;63501;55.570;37.488;2023-06-26T02:42:13;14.15;;;6.90;;
74935;SDS011;63501;55.570;37.488;2023-06-26T02:44:40;12.75;;;7.18;;
74935;SDS011;63501;55.570;37.488;2023-06-26T02:47:07;11.73;;;6.20;;
74935;SDS011;63501;55.570;37.488;2023-06-26T02:49:34;10.27;;;6.32;;
74935;SDS011;63501;55.570;37.488;2023-06-26T02:52:03;10.38;;;7.20;;
74935;SDS011;63501;55.570;37.488;2023-06-26T02:54:31;14.75;;;7.65;;
74935;SDS011;63501;55.570;37.488;2023-06-26T02:56:58;12.15;;;7.00;;
74935;SDS011;63501;55.570;37.488;2023-06-26T03:01:52;15.88;;;7.90;;
74935;SDS011;63501;55.570;37.488;2023-06-26T03:04:19;11.65;;;7.03;;
74935;SDS011;63501;55.570;37.488;2023-06-26T03:06:47;15.68;;;8.70;;
74935;SDS011;63501;55.570;37.488;2023-06-26T03:09:15;14.38;;;8.18;;
74935;SDS011;63501;55.570;37.488;2023-06-26T03:11:43;15.57;;;8.73;;
74935;SDS011;63501;55.570;37.488;2023-06-26T03:14:10;16.90;;;8.57;;
74935;SDS011;63501;55.570;37.488;2023-06-26T03:16:37;16.17;;;9.48;;
74935;SDS011;63501;55.570;37.488;2023-06-26T03:19:04;23.27;;;11.95;;
74935;SDS011;63501;55.570;37.488;2023-06-26T03:21:31;14.35;;;8.25;;
74935;SDS011;63501;55.570;37.488;2023-06-26T03:23:58;16.17;;;8.65;;
74935;SDS011;63501;55.570;37.488;2023-06-26T03:26:27;21.00;;;9.52;;
74935;SDS011;63501;55.570;37.488;2023-06-26T03:28:54;26.25;;;10.63;;
74935;SDS011;63501;55.570;37.488;2023-06-26T03:31:21;17.40;;;9.85;;
74935;SDS011;63501;55.570;37.488;2023-06-26T03:33:48;25.08;;;9.30;;
74935;SDS011;63501;55.570;37.488;2023-06-26T03:36:15;23.25;;;11.23;;
74935;SDS011;63501;55.570;37.488;2023-06-26T03:38:42;21.85;;;9.38;;
74935;SDS011;63501;55.570;37.488;2023-06-26T03:41:09;16.05;;;9.50;;
74935;SDS011;63501;55.570;37.488;2023-06-26T03:43:38;18.65;;;9.30;;
74935;SDS011;63501;55.570;37.488;2023-06-26T03:46:05;15.15;;;9.57;;
74935;SDS011;63501;55.570;37.488;2023-06-26T03:48:32;15.70;;;8.52;;
74935;SDS011;63501;55.570;37.488;2023-06-26T03:50:59;13.90;;;8.57;;
74935;SDS011;63501;55.570;37.488;2023-06-26T03:53:27;13.25;;;7.93;;
74935;SDS011;63501;55.570;37.488;2023-06-26T03:55:54;14.05;;;7.85;;
74935;SDS011;63501;55.570;37.488;2023-06-26T03:58:22;14.73;;;8.52;;
74935;SDS011;63501;55.570;37.488;2023-06-26T04:00:51;13.88;;;8.02;;
74935;SDS011;63501;55.570;37.488;2023-06-26T04:03:21;14.50;;;7.32;;
74935;SDS011;63501;55.570;37.488;2023-06-26T04:05:48;14.60;;;7.45;;
74935;SDS011;63501;55.570;37.488;2023-06-26T04:08:15;12.07;;;7.60;;
74935;SDS011;63501;55.570;37.488;2023-06-26T04:10:42;12.20;;;6.50;;
74935;SDS011;63501;55.570;37.488;2023-06-26T04:13:11;12.35;;;7.05;;
74935;SDS011;63501;55.570;37.488;2023-06-26T04:15:39;15.18;;;6.88;;
74935;SDS011;63501;55.570;37.488;2023-06-26T04:18:07;11.77;;;6.90;;
74935;SDS011;63501;55.570;37.488;2023-06-26T04:20:38;12.23;;;7.35;;
74935;SDS011;63501;55.570;37.488;2023-06-26T04:23:06;11.93;;;7.35;;
74935;SDS011;63501;55.570;37.488;2023-06-26T04:25:33;12.50;;;7.15;;
74935;SDS011;63501;55.570;37.488;2023-06-26T04:28:01;13.65;;;7.55;;
74935;SDS011;63501;55.570;37.488;2023-06-26T04:30:28;12.98;;;7.05;;
74935;SDS011;63501;55.570;37.488;2023-06-26T04:32:55;12.02;;;6.80;;
74935;SDS011;63501;55.570;37.488;2023-06-26T04:35:25;10.90;;;6.60;;
74935;SDS011;63501;55.570;37.488;2023-06-26T04:37:52;12.07;;;7.45;;
74935;SDS011;63501;55.570;37.488;2023-06-26T04:40:19;12.90;;;6.30;;
74935;SDS011;63501;55.570;37.488;2023-06-26T04:42:46;9.45;;;5.50;;
74935;SDS011;63501;55.570;37.488;2023-06-26T04:45:14;11.23;;;6.13;;
74935;SDS011;63501;55.570;37.488;2023-06-26T04:47:41;9.98;;;6.25;;
74935;SDS011;63501;55.570;37.488;2023-06-26T04:50:08;11.07;;;6.20;;
74935;SDS011;63501;55.570;37.488;2023-06-26T04:52:37;8.55;;;5.97;;
74935;SDS011;63501;55.570;37.488;2023-06-26T04:55:04;8.77;;;4.75;;
74935;SDS011;63501;55.570;37.488;2023-06-26T04:59:58;8.63;;;5.20;;
74935;SDS011;63501;55.570;37.488;2023-06-26T05:02:25;10.18;;;4.90;;
74935;SDS011;63501;55.570;37.488;2023-06-26T05:04:53;8.93;;;5.40;;
74935;SDS011;63501;55.570;37.488;2023-06-26T05:07:20;7.22;;;4.45;;
74935;SDS011;63501;55.570;37.488;2023-06-26T05:09:48;8.90;;;4.35;;
74935;SDS011;63501;55.570;37.488;2023-06-26T05:12:15;8.88;;;5.45;;
74935;SDS011;63501;55.570;37.488;2023-06-26T05:14:42;10.18;;;4.97;;
74935;SDS011;63501;55.570;37.488;2023-06-26T05:17:10;9.90;;;4.78;;
74935;SDS011;63501;55.570;37.488;2023-06-26T05:19:37;8.60;;;5.43;;
74935;SDS011;63501;55.570;37.488;2023-06-26T05:22:05;10.38;;;5.50;;
74935;SDS011;63501;55.570;37.488;2023-06-26T05:24:33;9.48;;;5.63;;
74935;SDS011;63501;55.570;37.488;2023-06-26T05:27:03;6.97;;;4.80;;
74935;SDS011;63501;55.570;37.488;2023-06-26T05:29:31;8.38;;;5.25;;
74935;SDS011;63501;55.570;37.488;2023-06-26T05:32:00;7.38;;;5.00;;
74935;SDS011;63501;55.570;37.488;2023-06-26T05:34:28;11.90;;;5.80;;
74935;SDS011;63501;55.570;37.488;2023-06-26T05:36:57;8.70;;;5.85;;
74935;SDS011;63501;55.570;37.488;2023-06-26T05:39:25;9.93;;;5.75;;
74935;SDS011;63501;55.570;37.488;2023-06-26T05:41:53;6.32;;;4.65;;
74935;SDS011;63501;55.570;37.488;2023-06-26T05:44:22;5.82;;;4.20;;
74935;SDS011;63501;55.570;37.488;2023-06-26T05:46:49;9.43;;;4.38;;
74935;SDS011;63501;55.570;37.488;2023-06-26T05:49:16;12.93;;;4.70;;
74935;SDS011;63501;55.570;37.488;2023-06-26T05:51:43;7.03;;;4.72;;
74935;SDS011;63501;55.570;37.488;2023-06-26T05:54:11;6.82;;;4.57;;
74935;SDS011;63501;55.570;37.488;2023-06-26T05:56:39;6.10;;;4.55;;
74935;SDS011;63501;55.570;37.488;2023-06-26T05:59:06;7.22;;;4.30;;
74935;SDS011;63501;55.570;37.488;2023-06-26T06:01:36;6.63;;;4.47;;
74935;SDS011;63501;55.570;37.488;2023-06-26T06:04:03;8.30;;;4.40;;
74935;SDS011;63501;55.570;37.488;2023-06-26T06:06:30;9.23;;;4.75;;
74935;SDS011;63501;55.570;37.488;2023-06-26T06:08:57;6.60;;;4.85;;
74935;SDS011;63501;55.570;37.488;2023-06-26T06:11:24;9.65;;;5.75;;
74935;SDS011;63501;55.570;37.488;2023-06-26T06:13:51;9.05;;;5.55;;
74935;SDS011;63501;55.570;37.488;2023-06-26T06:16:19;8.50;;;4.78;;
74935;SDS011;63501;55.570;37.488;2023-06-26T06:18:47;9.93;;;5.03;;
74935;SDS011;63501;55.570;37.488;2023-06-26T06:21:14;7.22;;;4.80;;
74935;SDS011;63501;55.570;37.488;2023-06-26T06:23:41;6.97;;;4.90;;
74935;SDS011;63501;55.570;37.488;2023-06-26T06:26:08;6.55;;;4.97;;
74935;SDS011;63501;55.570;37.488;2023-06-26T06:28:37;6.68;;;4.82;;
74935;SDS011;63501;55.570;37.488;2023-06-26T06:31:05;7.30;;;5.40;;
74935;SDS011;63501;55.570;37.488;2023-06-26T06:33:32;7.95;;;5.07;;
74935;SDS011;63501;55.570;37.488;2023-06-26T06:36:01;9.38;;;4.72;;
74935;SDS011;63501;55.570;37.488;2023-06-26T06:38:28;12.25;;;4.90;;
74935;SDS011;63501;55.570;37.488;2023-06-26T06:40:55;5.80;;;4.38;;
74935;SDS011;63501;55.570;37.488;2023-06-26T06:43:22;7.00;;;4.40;;
74935;SDS011;63501;55.570;37.488;2023-06-26T06:45:49;7.20;;;4.15;;
74935;SDS011;63501;55.570;37.488;2023-06-26T06:48:17;8.20;;;4.78;;
74935;SDS011;63501;55.570;37.488;2023-06-26T06:50:44;10.30;;;4.40;;
74935;SDS011;63501;55.570;37.488;2023-06-26T06:53:12;6.45;;;3.75;;
74935;SDS011;63501;55.570;37.488;2023-06-26T06:55:39;7.50;;;4.28;;
74935;SDS011;63501;55.570;37.488;2023-06-26T06:58:06;6.13;;;4.40;;
74935;SDS011;63501;55.570;37.488;2023-06-26T07:00:33;5.47;;;3.65;;
74935;SDS011;63501;55.570;37.488;2023-06-26T07:03:01;7.15;;;4.07;;
74935;SDS011;63501;55.570;37.488;2023-06-26T07:05:28;9.52;;;4.13;;
74935;SDS011;63501;55.570;37.488;2023-06-26T07:07:55;6.55;;;4.03;;
74935;SDS011;63501;55.570;37.488;2023-06-26T07:10:23;6.05;;;4.32;;
74935;SDS011;63501;55.570;37.488;2023-06-26T07:12:50;7.10;;;3.90;;
74935;SDS011;63501;55.570;37.488;2023-06-26T07:15:18;6.60;;;4.93;;
74935;SDS011;63501;55.570;37.488;2023-06-26T07:17:45;6.22;;;4.38;;
74935;SDS011;63501;55.570;37.488;2023-06-26T07:20:12;4.97;;;3.75;;
74935;SDS011;63501;55.570;37.488;2023-06-26T07:22:41;6.40;;;4.28;;
74935;SDS011;63501;55.570;37.488;2023-06-26T07:25:10;7.38;;;4.40;;
74935;SDS011;63501;55.570;37.488;2023-06-26T07:27:39;6.00;;;4.22;;
74935;SDS011;63501;55.570;37.488;2023-06-26T07:30:07;5.63;;;4.15;;
74935;SDS011;63501;55.570;37.488;2023-06-26T07:32:35;9.93;;;4.85;;
74935;SDS011;63501;55.570;37.488;2023-06-26T07:35:02;5.95;;;4.90;;
74935;SDS011;63501;55.570;37.488;2023-06-26T07:37:31;5.68;;;4.15;;
74935;SDS011;63501;55.570;37.488;2023-06-26T07:39:59;6.72;;;4.57;;
74935;SDS011;63501;55.570;37.488;2023-06-26T07:42:26;5.35;;;4.22;;
74935;SDS011;63501;55.570;37.488;2023-06-26T07:44:54;6.55;;;3.90;;
74935;SDS011;63501;55.570;37.488;2023-06-26T07:47:21;6.63;;;4.53;;
74935;SDS011;63501;55.570;37.488;2023-06-26T07:49:48;8.98;;;5.93;;
74935;SDS011;63501;55.570;37.488;2023-06-26T07:52:17;7.65;;;4.80;;
74935;SDS011;63501;55.570;37.488;2023-06-26T07:54:45;6.18;;;4.90;;
74935;SDS011;63501;55.570;37.488;2023-06-26T07:57:12;5.43;;;4.70;;
74935;SDS011;63501;55.570;37.488;2023-06-26T07:59:39;5.45;;;4.50;;
74935;SDS011;63501;55.570;37.488;2023-06-26T08:02:07;5.72;;;3.70;;
74935;SDS011;63501;55.570;37.488;2023-06-26T08:04:35;7.00;;;4.20;;
74935;SDS011;63501;55.570;37.488;2023-06-26T08:07:02;5.15;;;4.07;;
74935;SDS011;63501;55.570;37.488;2023-06-26T08:09:30;5.70;;;4.32;;
74935;SDS011;63501;55.570;37.488;2023-06-26T08:11:58;4.78;;;3.90;;
74935;SDS011;63501;55.570;37.488;2023-06-26T08:14:25;7.13;;;4.55;;
74935;SDS011;63501;55.570;37.488;2023-06-26T08:19:21;4.90;;;3.85;;
74935;SDS011;63501;55.570;37.488;2023-06-26T08:21:48;4.25;;;3.72;;
74935;SDS011;63501;55.570;37.488;2023-06-26T08:24:15;9.43;;;4.75;;
74935;SDS011;63501;55.570;37.488;2023-06-26T08:26:44;5.82;;;4.13;;
74935;SDS011;63501;55.570;37.488;2023-06-26T08:29:11;9.73;;;7.18;;
74935;SDS011;63501;55.570;37.488;2023-06-26T08:31:39;6.32;;;3.92;;
74935;SDS011;63501;55.570;37.488;2023-06-26T08:34:06;5.07;;;3.92;;
74935;SDS011;63501;55.570;37.488;2023-06-26T08:36:35;8.35;;;4.95;;
74935;SDS011;63501;55.570;37.488;2023-06-26T08:39:02;5.38;;;4.25;;
74935;SDS011;63501;55.570;37.488;2023-06-26T08:41:30;7.03;;;4.20;;
74935;SDS011;63501;55.570;37.488;2023-06-26T08:43:58;7.82;;;4.10;;
74935;SDS011;63501;55.570;37.488;2023-06-26T08:46:25;5.53;;;4.10;;
74935;SDS011;63501;55.570;37.488;2023-06-26T08:48:54;7.70;;;5.07;;
74935;SDS011;63501;55.570;37.488;2023-06-26T08:51:24;7.20;;;5.10;;
74935;SDS011;63501;55.570;37.488;2023-06-26T08:53:57;5.25;;;3.97;;
74935;SDS011;63501;55.570;37.488;2023-06-26T08:56:27;5.32;;;4.00;;
74935;SDS011;63501;55.570;37.488;2023-06-26T08:58:56;4.68;;;4.05;;
74935;SDS011;63501;55.570;37.488;2023-06-26T09:03:50;5.25;;;4.47;;
74935;SDS011;63501;55.570;37.488;2023-06-26T09:06:18;4.82;;;3.80;;
74935;SDS011;63501;55.570;37.488;2023-06-26T09:08:45;4.43;;;4.03;;
74935;SDS011;63501;55.570;37.488;2023-06-26T09:11:14;6.65;;;4.63;;
74935;SDS011;63501;55.570;37.488;2023-06-26T09:13:41;6.38;;;4.55;;
74935;SDS011;63501;55.570;37.488;2023-06-26T09:16:09;4.55;;;4.15;;
74935;SDS011;63501;55.570;37.488;2023-06-26T09:18:37;5.00;;;4.28;;
74935;SDS011;63501;55.570;37.488;2023-06-26T09:21:07;5.97;;;4.38;;
74935;SDS011;63501;55.570;37.488;2023-06-26T09:23:35;7.38;;;4.47;;
74935;SDS011;63501;55.570;37.488;2023-06-26T09:26:03;7.22;;;4.40;;
74935;SDS011;63501;55.570;37.488;2023-06-26T09:28:32;6.38;;;4.07;;
74935;SDS011;63501;55.570;37.488;2023-06-26T09:31:02;6.20;;;4.82;;
74935;SDS011;63501;55.570;37.488;2023-06-26T09:33:33;6.32;;;4.53;;
74935;SDS011;63501;55.570;37.488;2023-06-26T09:36:04;7.28;;;4.57;;
74935;SDS011;63501;55.570;37.488;2023-06-26T09:38:33;5.15;;;4.05;;
74935;SDS011;63501;55.570;37.488;2023-06-26T09:41:01;5.45;;;3.75;;
74935;SDS011;63501;55.570;37.488;2023-06-26T09:43:28;9.13;;;5.00;;
74935;SDS011;63501;55.570;37.488;2023-06-26T09:45:58;10.68;;;4.80;;
74935;SDS011;63501;55.570;37.488;2023-06-26T09:48:25;5.80;;;4.70;;
74935;SDS011;63501;55.570;37.488;2023-06-26T09:53:19;6.15;;;4.63;;
74935;SDS011;63501;55.570;37.488;2023-06-26T09:58:13;5.55;;;4.57;;
74935;SDS011;63501;55.570;37.488;2023-06-26T10:00:42;4.47;;;3.85;;
74935;SDS011;63501;55.570;37.488;2023-06-26T10:03:11;7.25;;;5.80;;
74935;SDS011;63501;55.570;37.488;2023-06-26T10:05:40;5.47;;;3.90;;
74935;SDS011;63501;55.570;37.488;2023-06-26T10:08:08;4.78;;;4.28;;
74935;SDS011;63501;55.570;37.488;2023-06-26T10:10:36;5.50;;;4.60;;
74935;SDS011;63501;55.570;37.488;2023-06-26T10:13:04;5.93;;;4.70;;
74935;SDS011;63501;55.570;37.488;2023-06-26T10:15:37;6.45;;;4.80;;
74935;SDS011;63501;55.570;37.488;2023-06-26T10:18:08;5.57;;;4.40;;
74935;SDS011;63501;55.570;37.488;2023-06-26T10:20:38;7.68;;;4.82;;
74935;SDS011;63501;55.570;37.488;2023-06-26T10:23:07;5.07;;;4.32;;
74935;SDS011;63501;55.570;37.488;2023-06-26T10:25:37;5.75;;;4.35;;
74935;SDS011;63501;55.570;37.488;2023-06-26T10:28:11;4.90;;;4.10;;
74935;SDS011;63501;55.570;37.488;2023-06-26T10:30:40;4.78;;;4.28;;
74935;SDS011;63501;55.570;37.488;2023-06-26T10:33:10;5.95;;;4.05;;
74935;SDS011;63501;55.570;37.488;2023-06-26T10:35:43;4.82;;;3.95;;
74935;SDS011;63501;55.570;37.488;2023-06-26T10:38:11;6.72;;;4.40;;
74935;SDS011;63501;55.570;37.488;2023-06-26T10:40:41;4.93;;;4.32;;
74935;SDS011;63501;55.570;37.488;2023-06-26T10:43:11;6.35;;;4.28;;
74935;SDS011;63501;55.570;37.488;2023-06-26T10:45:43;5.10;;;4.60;;
74935;SDS011;63501;55.570;37.488;2023-06-26T10:48:12;6.20;;;4.80;;
74935;SDS011;63501;55.570;37.488;2023-06-26T10:50:41;6.95;;;5.28;;
74935;SDS011;63501;55.570;37.488;2023-06-26T10:53:13;6.13;;;4.47;;
74935;SDS011;63501;55.570;37.488;2023-06-26T10:55:47;7.45;;;5.60;;
74935;SDS011;63501;55.570;37.488;2023-06-26T10:58:28;6.55;;;5.40;;
74935;SDS011;63501;55.570;37.488;2023-06-26T11:04:03;4.70;;;3.85;;
74935;SDS011;63501;55.570;37.488;2023-06-26T11:06:32;5.32;;;3.70;;
74935;SDS011;63501;55.570;37.488;2023-06-26T11:09:06;7.13;;;4.65;;
74935;SDS011;63501;55.570;37.488;2023-06-26T11:14:25;5.57;;;3.92;;
74935;SDS011;63501;55.570;37.488;2023-06-26T11:16:55;4.47;;;3.75;;
74935;SDS011;63501;55.570;37.488;2023-06-26T11:19:22;4.90;;;4.10;;
74935;SDS011;63501;55.570;37.488;2023-06-26T11:21:49;4.55;;;4.15;;
74935;SDS011;63501;55.570;37.488;2023-06-26T11:24:19;6.47;;;5.32;;
74935;SDS011;63501;55.570;37.488;2023-06-26T11:26:46;4.03;;;3.67;;
74935;SDS011;63501;55.570;37.488;2023-06-26T11:29:13;5.18;;;4.63;;
74935;SDS011;63501;55.570;37.488;2023-06-26T11:31:41;5.07;;;4.07;;
74935;SDS011;63501;55.570;37.488;2023-06-26T11:34:09;4.43;;;4.03;;
74935;SDS011;63501;55.570;37.488;2023-06-26T11:36:37;6.05;;;4.38;;
74935;SDS011;63501;55.570;37.488;2023-06-26T11:39:07;5.07;;;4.43;;
74935;SDS011;63501;55.570;37.488;2023-06-26T11:41:38;5.55;;;5.03;;
74935;SDS011;63501;55.570;37.488;2023-06-26T11:44:06;5.55;;;4.95;;
74935;SDS011;63501;55.570;37.488;2023-06-26T11:46:35;6.97;;;4.70;;
74935;SDS011;63501;55.570;37.488;2023-06-26T11:49:04;6.20;;;4.55;;
74935;SDS011;63501;55.570;37.488;2023-06-26T11:51:32;7.70;;;4.70;;
74935;SDS011;63501;55.570;37.488;2023-06-26T11:54:00;7.85;;;4.07;;
74935;SDS011;63501;55.570;37.488;2023-06-26T11:56:28;6.03;;;4.50;;
74935;SDS011;63501;55.570;37.488;2023-06-26T12:01:30;7.63;;;4.72;;
74935;SDS011;63501;55.570;37.488;2023-06-26T12:03:59;7.10;;;5.25;;
74935;SDS011;63501;55.570;37.488;2023-06-26T12:06:28;5.68;;;4.75;;
74935;SDS011;63501;55.570;37.488;2023-06-26T12:08:57;6.50;;;4.60;;
74935;SDS011;63501;55.570;37.488;2023-06-26T12:11:25;6.93;;;5.40;;
74935;SDS011;63501;55.570;37.488;2023-06-26T12:13:54;6.20;;;4.95;;
74935;SDS011;63501;55.570;37.488;2023-06-26T12:16:22;5.53;;;4.93;;
74935;SDS011;63501;55.570;37.488;2023-06-26T12:18:50;5.97;;;4.63;;
74935;SDS011;63501;55.570;37.488;2023-06-26T12:24:16;5.70;;;4.78;;
74935;SDS011;63501;55.570;37.488;2023-06-26T12:26:45;4.60;;;4.20;;
74935;SDS011;63501;55.570;37.488;2023-06-26T12:29:14;5.30;;;4.72;;
74935;SDS011;63501;55.570;37.488;2023-06-26T12:31:45;7.68;;;4.43;;
74935;SDS011;63501;55.570;37.488;2023-06-26T12:34:15;6.22;;;4.40;;
74935;SDS011;63501;55.570;37.488;2023-06-26T12:36:45;5.95;;;4.07;;
74935;SDS011;63501;55.570;37.488;2023-06-26T12:39:15;5.03;;;3.90;;
74935;SDS011;63501;55.570;37.488;2023-06-26T12:41:44;6.57;;;4.30;;
74935;SDS011;63501;55.570;37.488;2023-06-26T12:44:21;4.65;;;3.63;;
74935;SDS011;63501;55.570;37.488;2023-06-26T12:46:54;4.20;;;3.72;;
74935;SDS011;63501;55.570;37.488;2023-06-26T12:49:30;4.88;;;4.35;;
74935;SDS011;63501;55.570;37.488;2023-06-26T12:51:59;4.47;;;4.07;;
74935;SDS011;63501;55.570;37.488;2023-06-26T12:54:27;5.18;;;3.90;;
74935;SDS011;63501;55.570;37.488;2023-06-26T12:56:54;5.30;;;4.40;;
74935;SDS011;63501;55.570;37.488;2023-06-26T12:59:22;4.55;;;4.03;;
74935;SDS011;63501;55.570;37.488;2023-06-26T13:01:49;4.57;;;4.18;;
74935;SDS011;63501;55.570;37.488;2023-06-26T13:04:18;4.88;;;4.47;;
74935;SDS011;63501;55.570;37.488;2023-06-26T13:06:45;4.13;;;3.65;;
74935;SDS011;63501;55.570;37.488;2023-06-26T13:09:12;4.80;;;3.97;;
74935;SDS011;63501;55.570;37.488;2023-06-26T13:11:39;5.38;;;4.43;;
74935;SDS011;63501;55.570;37.488;2023-06-26T13:14:06;4.63;;;4.20;;
74935;SDS011;63501;55.570;37.488;2023-06-26T13:16:34;5.05;;;4.65;;
74935;SDS011;63501;55.570;37.488;2023-06-26T13:19:01;5.25;;;4.47;;
74935;SDS011;63501;55.570;37.488;2023-06-26T13:21:29;5.60;;;5.00;;
74935;SDS011;63501;55.570;37.488;2023-06-26T13:23:57;5.57;;;5.00;;
74935;SDS011;63501;55.570;37.488;2023-06-26T13:26:24;6.53;;;4.47;;
74935;SDS011;63501;55.570;37.488;2023-06-26T13:28:54;5.53;;;5.00;;
74935;SDS011;63501;55.570;37.488;2023-06-26T13:31:22;6.57;;;4.70;;
74935;SDS011;63501;55.570;37.488;2023-06-26T13:33:49;6.25;;;5.10;;
74935;SDS011;63501;55.570;37.488;2023-06-26T13:36:16;8.18;;;4.13;;
74935;SDS011;63501;55.570;37.488;2023-06-26T13:38:45;8.07;;;4.10;;
74935;SDS011;63501;55.570;37.488;2023-06-26T13:41:14;8.63;;;4.70;;
74935;SDS011;63501;55.570;37.488;2023-06-26T13:43:41;5.55;;;4.47;;
74935;SDS011;63501;55.570;37.488;2023-06-26T13:46:08;5.82;;;4.43;;
74935;SDS011;63501;55.570;37.488;2023-06-26T13:48:35;6.05;;;4.63;;
74935;SDS011;63501;55.570;37.488;2023-06-26T13:51:02;5.63;;;4.40;;
74935;SDS011;63501;55.570;37.488;2023-06-26T13:53:29;6.43;;;4.03;;
74935;SDS011;63501;55.570;37.488;2023-06-26T13:55:58;4.90;;;4.50;;
74935;SDS011;63501;55.570;37.488;2023-06-26T13:58:25;5.85;;;4.53;;
74935;SDS011;63501;55.570;37.488;2023-06-26T14:00:55;5.22;;;4.10;;
74935;SDS011;63501;55.570;37.488;2023-06-26T14:03:23;4.97;;;4.47;;
74935;SDS011;63501;55.570;37.488;2023-06-26T14:05:50;5.30;;;4.38;;
74935;SDS011;63501;55.570;37.488;2023-06-26T14:08:17;5.47;;;4.57;;
74935;SDS011;63501;55.570;37.488;2023-06-26T14:10:44;7.22;;;4.68;;
74935;SDS011;63501;55.570;37.488;2023-06-26T14:13:13;5.97;;;4.53;;
74935;SDS011;63501;55.570;37.488;2023-06-26T14:15:41;5.22;;;4.20;;
74935;SDS011;63501;55.570;37.488;2023-06-26T14:18:08;8.23;;;5.10;;
74935;SDS011;63501;55.570;37.488;2023-06-26T14:20:36;7.25;;;4.50;;
74935;SDS011;63501;55.570;37.488;2023-06-26T14:23:03;7.50;;;4.50;;
74935;SDS011;63501;55.570;37.488;2023-06-26T14:25:30;5.78;;;4.80;;
74935;SDS011;63501;55.570;37.488;2023-06-26T14:30:26;7.55;;;5.00;;
74935;SDS011;63501;55.570;37.488;2023-06-26T14:32:53;6.32;;;4.60;;
74935;SDS011;63501;55.570;37.488;2023-06-26T14:37:47;8.75;;;5.15;;
74935;SDS011;63501;55.570;37.488;2023-06-26T14:40:15;5.35;;;4.63;;
74935;SDS011;63501;55.570;37.488;2023-06-26T14:42:42;5.50;;;4.35;;
74935;SDS011;63501;55.570;37.488;2023-06-26T14:45:11;6.90;;;4.95;;
74935;SDS011;63501;55.570;37.488;2023-06-26T14:50:07;5.70;;;4.32;;
74935;SDS011;63501;55.570;37.488;2023-06-26T14:52:35;7.75;;;5.00;;
74935;SDS011;63501;55.570;37.488;2023-06-26T14:57:29;6.82;;;4.43;;
74935;SDS011;63501;55.570;37.488;2023-06-26T15:02:23;7.25;;;5.10;;
74935;SDS011;63501;55.570;37.488;2023-06-26T15:04:51;5.60;;;5.05;;
74935;SDS011;63501;55.570;37.488;2023-06-26T15:07:18;7.70;;;4.57;;
74935;SDS011;63501;55.570;37.488;2023-06-26T15:09:45;4.95;;;4.45;;
74935;SDS011;63501;55.570;37.488;2023-06-26T15:12:13;9.13;;;6.25;;
74935;SDS011;63501;55.570;37.488;2023-06-26T15:14:40;5.45;;;4.53;;
74935;SDS011;63501;55.570;37.488;2023-06-26T15:17:07;6.35;;;4.85;;
74935;SDS011;63501;55.570;37.488;2023-06-26T15:19:34;5.03;;;4.55;;